Time;durP1;ratioP1;P1;durP2;ratioP2;P2;SDS_P1;SDS_P2;PMS_P1;PMS_P2;Temp;Humidity;BMP_temperature;BMP_pressure;BME280_temperature;BME280_humidity;BME280_pressure;Samples;Min_cycle;Max_cycle;Signal;HPM_P1;HPM_P2
2022/06/30 00:01:23;;;;;;;9.90;5.40;;;640.20;1740.80;;;;;;5093400;28;20470;-78
2022/06/30 00:03:49;;;;;;;12.38;5.35;;;640.10;1740.80;;;;;;5092954;28;20097;-78
2022/06/30 00:06:15;;;;;;;11.50;5.20;;;640.00;1740.80;;;;;;5093238;28;20050;-78
2022/06/30 00:08:41;;;;;;;10.05;5.60;;;640.00;1766.40;;;;;;5078388;28;20066;-79
2022/06/30 00:11:09;;;;;;;9.05;5.75;;;615.30;1766.40;;;;;;5093053;28;20027;-79
2022/06/30 00:13:37;;;;;;;13.60;5.97;;;640.00;1766.40;;;;;;5090110;28;20031;-79
2022/06/30 00:16:04;;;;;;;16.85;6.75;;;640.00;1766.40;;;;;;5074464;28;20016;-78
2022/06/30 00:18:30;;;;;;;12.63;5.55;;;615.30;1766.40;;;;;;5074574;28;20457;-78
2022/06/30 00:20:55;;;;;;;15.40;6.45;;;615.30;1792.00;;;;;;5073620;28;20020;-78
2022/06/30 00:23:21;;;;;;;11.32;5.72;;;615.30;1766.40;;;;;;5088335;28;20050;-78
2022/06/30 00:25:47;;;;;;;12.77;6.43;;;615.30;1766.40;;;;;;5084517;28;20039;-78
2022/06/30 00:28:13;;;;;;;13.02;6.70;;;615.20;1766.40;;;;;;5088632;28;20020;-78
2022/06/30 00:30:39;;;;;;;12.00;5.43;;;615.10;1792.00;;;;;;5072367;28;20395;-79
2022/06/30 00:33:04;;;;;;;13.20;6.40;;;615.10;1792.00;;;;;;5071442;28;20036;-79
2022/06/30 00:35:30;;;;;;;12.70;5.45;;;615.00;1817.60;;;;;;5071554;28;20074;-78
2022/06/30 00:37:56;;;;;;;9.43;5.13;;;614.90;1817.60;;;;;;5074641;28;20482;-78
2022/06/30 00:40:22;;;;;;;11.65;5.80;;;614.80;1817.60;;;;;;5077193;28;20028;-79
2022/06/30 00:42:48;;;;;;;9.02;5.00;;;614.80;1817.60;;;;;;5091879;28;20020;-79
2022/06/30 00:45:13;;;;;;;11.43;5.53;;;614.80;1843.20;;;;;;5068719;28;20113;-79
2022/06/30 00:47:40;;;;;;;13.63;5.47;;;614.80;1843.20;;;;;;5071972;28;20019;-78
2022/06/30 00:50:07;;;;;;;12.13;5.45;;;614.70;1868.80;;;;;;5076019;28;20584;-79
2022/06/30 00:52:35;;;;;;;11.50;6.47;;;614.80;1843.20;;;;;;5076957;28;20098;-78
2022/06/30 00:55:03;;;;;;;9.45;5.50;;;614.80;1868.80;;;;;;5092288;28;20028;-79
2022/06/30 00:57:30;;;;;;;10.13;5.05;;;614.70;1868.80;;;;;;5092005;28;20024;-79
2022/06/30 00:59:57;;;;;;;10.55;5.00;;;614.70;1868.80;;;;;;5074479;28;20032;-79
2022/06/30 01:02:24;;;;;;;13.88;4.70;;;614.50;1894.40;;;;;;5077339;28;20105;-78
2022/06/30 01:04:53;;;;;;;8.45;5.43;;;614.40;1920.00;;;;;;5091937;28;20485;-77
2022/06/30 01:07:22;;;;;;;10.35;5.15;;;614.40;1920.00;;;;;;5072551;28;20028;-78
2022/06/30 01:12:44;;;;;;;7.78;5.47;;;614.40;1920.00;;;;;;5091657;28;20070;-78
2022/06/30 01:15:15;;;;;;;13.48;5.20;;;614.50;1920.00;;;;;;5071622;28;20021;-78
2022/06/30 01:17:41;;;;;;;11.30;6.07;;;614.40;1920.00;;;;;;5084953;28;20055;-78
2022/06/30 01:20:08;;;;;;;12.85;5.97;;;614.40;1920.00;;;;;;5075941;28;20470;-78
2022/06/30 01:22:34;;;;;;;9.48;6.05;;;614.40;1945.60;;;;;;5076472;28;20046;-78
2022/06/30 01:25:00;;;;;;;8.88;5.80;;;589.70;1945.60;;;;;;5091972;28;20023;-78
2022/06/30 01:27:25;;;;;;;8.65;5.28;;;589.70;1945.60;;;;;;5076754;28;20016;-78
2022/06/30 01:29:52;;;;;;;12.27;5.97;;;589.70;1945.60;;;;;;5073616;28;20039;-78
2022/06/30 01:32:18;;;;;;;11.80;6.20;;;589.70;1945.60;;;;;;5066418;28;20432;-78
2022/06/30 01:34:44;;;;;;;9.80;6.05;;;589.70;1945.60;;;;;;5072018;28;20027;-78
2022/06/30 01:37:10;;;;;;;13.48;6.65;;;614.40;1945.60;;;;;;5075934;28;20020;-77
2022/06/30 01:39:35;;;;;;;8.55;5.82;;;614.40;1945.60;;;;;;5091500;28;20099;-78
2022/06/30 01:42:02;;;;;;;13.40;7.13;;;614.40;1945.60;;;;;;5074902;28;20534;-78
2022/06/30 01:44:28;;;;;;;13.48;7.55;;;614.40;1945.60;;;;;;5083023;28;20418;-78
2022/06/30 01:46:54;;;;;;;17.83;7.97;;;614.40;1945.60;;;;;;5065309;28;20024;-76
2022/06/30 01:49:19;;;;;;;19.73;9.63;;;614.40;1971.20;;;;;;5067543;28;20020;-78
2022/06/30 01:51:45;;;;;;;19.50;8.88;;;589.70;1971.20;;;;;;5063651;28;20021;-79
2022/06/30 01:54:11;;;;;;;18.63;9.00;;;589.70;1996.80;;;;;;5084877;28;20032;-78
2022/06/30 01:56:38;;;;;;;18.42;8.82;;;589.60;2022.40;;;;;;5086794;28;20381;-78
2022/06/30 01:59:04;;;;;;;16.55;8.00;;;589.50;2022.40;;;;;;5066817;28;20032;-79
2022/06/30 02:01:31;;;;;;;14.95;8.50;;;589.40;2048.00;;;;;;5084791;28;20020;-77
2022/06/30 02:04:46;;;;;;;18.40;9.30;;;588.90;2073.60;;;;;;5068493;28;20024;-78
2022/06/30 02:06:43;;;;;;;13.27;7.50;;;589.30;2073.60;;;;;;5084371;28;20066;-78
2022/06/30 02:09:09;;;;;;;15.70;8.07;;;589.40;2073.60;;;;;;5067043;28;20032;-79
2022/06/30 02:11:34;;;;;;;17.83;6.70;;;589.30;2099.20;;;;;;5067926;28;20078;-78
2022/06/30 02:14:00;;;;;;;11.43;6.72;;;589.30;2073.60;;;;;;5067823;28;20038;-79
2022/06/30 02:16:26;;;;;;;15.00;7.75;;;589.10;2124.80;;;;;;5066823;28;20024;-78
2022/06/30 02:18:52;;;;;;;16.60;7.90;;;589.10;2124.80;;;;;;5066043;28;20398;-77
2022/06/30 02:21:17;;;;;;;11.05;6.45;;;589.10;2124.80;;;;;;5067891;28;20078;-77
2022/06/30 02:23:43;;;;;;;12.23;6.40;;;589.10;2124.80;;;;;;5066248;28;20017;-78
2022/06/30 02:26:09;;;;;;;9.73;6.43;;;589.10;2124.80;;;;;;5083934;28;20020;-78
2022/06/30 02:28:35;;;;;;;16.40;7.03;;;589.10;2124.80;;;;;;5051739;28;20175;-78
2022/06/30 02:31:01;;;;;;;9.43;5.72;;;589.10;2150.40;;;;;;5084200;28;20031;-78
2022/06/30 02:33:26;;;;;;;14.18;6.57;;;589.10;2150.40;;;;;;5066776;28;20489;-78
2022/06/30 02:35:52;;;;;;;13.80;6.40;;;589.00;2176.00;;;;;;5069065;28;20039;-78
2022/06/30 02:38:18;;;;;;;12.80;7.22;;;588.90;2176.00;;;;;;5064782;28;20078;-78
2022/06/30 02:40:44;;;;;;;14.70;6.15;;;589.00;2176.00;;;;;;5084115;28;20021;-78
2022/06/30 02:43:10;;;;;;;17.83;6.00;;;589.00;2176.00;;;;;;5084703;28;20028;-78
2022/06/30 02:45:36;;;;;;;13.60;6.72;;;589.10;2176.00;;;;;;5094843;28;20537;-78
2022/06/30 02:48:02;;;;;;;11.90;5.85;;;589.20;2150.40;;;;;;5076609;28;20032;-78
2022/06/30 02:50:28;;;;;;;11.10;5.88;;;589.10;2176.00;;;;;;5090883;28;20027;-78
2022/06/30 02:52:54;;;;;;;9.50;5.50;;;589.00;2201.60;;;;;;5076396;28;20028;-78
2022/06/30 02:55:21;;;;;;;11.52;5.72;;;589.00;2201.60;;;;;;5106118;28;20027;-78
2022/06/30 02:57:47;;;;;;;10.43;5.93;;;589.00;2201.60;;;;;;5068877;28;20111;-78
2022/06/30 03:00:14;;;;;;;7.78;5.30;;;589.10;2176.00;;;;;;5094223;28;20024;-77
2022/06/30 03:02:40;;;;;;;10.13;5.75;;;589.10;2201.60;;;;;;5084959;28;20071;-78
2022/06/30 03:05:07;;;;;;;9.23;5.88;;;589.00;2227.20;;;;;;5093916;28;20087;-79
2022/06/30 03:07:32;;;;;;;11.02;6.15;;;589.00;2227.20;;;;;;5094129;28;20024;-78
2022/06/30 03:09:59;;;;;;;11.30;5.65;;;589.00;2227.20;;;;;;5076236;28;20107;-78
2022/06/30 03:12:24;;;;;;;8.32;5.63;;;588.80;2227.20;;;;;;5071705;28;20067;-78
2022/06/30 03:14:50;;;;;;;11.13;6.10;;;588.90;2227.20;;;;;;5071383;28;20032;-78
2022/06/30 03:17:16;;;;;;;10.18;5.72;;;589.00;2252.80;;;;;;5093579;28;20531;-78
2022/06/30 03:19:42;;;;;;;8.30;5.47;;;589.00;2227.20;;;;;;5089917;28;20028;-78
2022/06/30 03:22:08;;;;;;;8.55;5.15;;;589.10;2252.80;;;;;;5076636;28;20020;-79
2022/06/30 03:24:33;;;;;;;10.10;5.60;;;589.20;2227.20;;;;;;5093718;28;20420;-78
2022/06/30 03:27:00;;;;;;;11.48;5.30;;;589.30;2201.60;;;;;;5079440;28;20016;-78
2022/06/30 03:29:25;;;;;;;11.05;6.78;;;589.20;2227.20;;;;;;5079444;28;20031;-79
2022/06/30 03:31:51;;;;;;;10.07;5.82;;;589.20;2252.80;;;;;;5093640;28;20035;-79
2022/06/30 03:34:17;;;;;;;10.98;6.00;;;589.20;2252.80;;;;;;5079576;28;20028;-79
2022/06/30 03:36:42;;;;;;;13.02;6.18;;;589.20;2252.80;;;;;;5075876;28;20036;-78
2022/06/30 03:39:08;;;;;;;10.98;5.90;;;589.30;2252.80;;;;;;5093537;28;20028;-78
2022/06/30 03:41:34;;;;;;;12.68;5.65;;;589.40;2252.80;;;;;;5093401;28;20016;-78
2022/06/30 03:44:00;;;;;;;10.50;6.07;;;589.40;2278.40;;;;;;5093239;28;20505;-78
2022/06/30 03:46:26;;;;;;;10.50;5.65;;;589.40;2278.40;;;;;;5073167;28;20471;-78
2022/06/30 03:48:51;;;;;;;11.98;5.70;;;589.30;2278.40;;;;;;5067928;28;20406;-78
2022/06/30 03:51:17;;;;;;;10.30;5.75;;;589.40;2278.40;;;;;;5093410;28;20016;-78
2022/06/30 03:53:43;;;;;;;12.10;6.05;;;589.40;2304.00;;;;;;5078764;28;20066;-78
2022/06/30 03:56:09;;;;;;;23.52;6.28;;;589.50;2278.40;;;;;;5092882;28;20070;-78
2022/06/30 03:58:35;;;;;;;15.98;6.47;;;589.50;2278.40;;;;;;5092745;28;20062;-78
2022/06/30 04:01:00;;;;;;;14.60;5.72;;;589.60;2278.40;;;;;;5076109;28;20024;-78
2022/06/30 04:03:27;;;;;;;13.25;7.20;;;589.70;2278.40;;;;;;5079101;28;20493;-78
2022/06/30 04:05:53;;;;;;;11.20;5.70;;;589.70;2278.40;;;;;;5063800;28;20040;-78
2022/06/30 04:08:18;;;;;;;15.07;5.68;;;589.70;2278.40;;;;;;5076443;28;20446;-79
2022/06/30 04:10:44;;;;;;;9.02;5.80;;;589.70;2278.40;;;;;;5070730;28;20024;-81
2022/06/30 04:13:10;;;;;;;11.02;5.72;;;614.40;2278.40;;;;;;5077833;28;20064;-78
2022/06/30 04:15:36;;;;;;;13.05;5.88;;;614.40;2304.00;;;;;;5073865;28;20047;-78
2022/06/30 04:18:01;;;;;;;12.10;6.30;;;614.60;2304.00;;;;;;5093140;28;20028;-81
2022/06/30 04:20:27;;;;;;;10.50;5.97;;;614.60;2304.00;;;;;;5075315;28;20016;-78
2022/06/30 04:22:53;;;;;;;13.40;5.97;;;614.70;2278.40;;;;;;5075510;28;20063;-80
2022/06/30 04:25:20;;;;;;;14.60;6.20;;;614.70;2304.00;;;;;;5071385;28;20497;-81
2022/06/30 04:27:54;;;;;;;9.95;5.65;;;614.60;2304.00;;;;;;5081037;28;20039;-80
2022/06/30 04:33:05;;;;;;;11.13;6.03;;;614.90;2278.40;;;;;;5093028;28;20500;-80
2022/06/30 04:35:32;;;;;;;10.57;4.82;;;615.10;2227.20;;;;;;5075172;28;20154;-83
2022/06/30 04:38:03;;;;;;;11.57;5.53;;;615.20;2227.20;;;;;;5074915;28;20074;-79
2022/06/30 04:43:13;;;;;;;10.45;5.38;;;615.30;2176.00;;;;;;5091952;28;20086;-78
2022/06/30 04:45:39;;;;;;;14.68;6.13;;;640.00;2150.40;;;;;;5073833;28;20067;-79
2022/06/30 04:48:06;;;;;;;11.35;5.88;;;640.10;2124.80;;;;;;5074305;28;20012;-79
2022/06/30 04:50:31;;;;;;;8.80;5.22;;;640.20;2124.80;;;;;;5073762;28;20209;-87
2022/06/30 04:52:57;;;;;;;9.93;5.57;;;640.50;2124.80;;;;;;5074446;28;20028;-81
2022/06/30 04:55:23;;;;;;;7.13;4.97;;;640.50;2048.00;;;;;;5092628;28;20032;-87
2022/06/30 04:57:49;;;;;;;7.32;5.15;;;640.60;2073.60;;;;;;5092996;28;20493;-80
2022/06/30 05:00:16;;;;;;;8.95;5.07;;;640.80;2022.40;;;;;;5074628;28;20113;-91
2022/06/30 05:02:42;;;;;;;15.90;5.47;;;640.90;2048.00;;;;;;5077941;28;20025;-80
2022/06/30 05:05:08;;;;;;;8.57;4.95;;;665.60;2022.40;;;;;;5070548;28;20050;-88
2022/06/30 05:07:34;;;;;;;11.27;5.22;;;665.70;1945.60;;;;;;5063168;28;20087;-84
2022/06/30 05:09:59;;;;;;;15.82;5.53;;;665.90;1971.20;;;;;;5066499;28;20020;-79
2022/06/30 05:12:25;;;;;;;10.77;4.90;;;665.90;1945.60;;;;;;5070564;28;20549;-80
2022/06/30 05:14:51;;;;;;;9.30;5.03;;;666.00;1843.20;;;;;;5064022;28;20048;-81
2022/06/30 05:17:17;;;;;;;14.02;5.45;;;666.00;1843.20;;;;;;5062312;28;20103;-81
2022/06/30 05:19:42;;;;;;;11.40;4.82;;;666.10;1817.60;;;;;;5062335;28;20115;-79
2022/06/30 05:22:08;;;;;;;15.55;5.15;;;666.30;1766.40;;;;;;5065774;28;20020;-79
2022/06/30 05:27:18;;;;;;;4.38;3.80;;;666.50;1740.80;;;;;;5082141;28;20672;-81
2022/06/30 05:29:44;;;;;;;8.85;4.50;;;691.30;1715.20;;;;;;5072625;28;20028;-81
2022/06/30 05:32:10;;;;;;;5.82;3.72;;;691.30;1689.60;;;;;;5086897;28;20489;-79
2022/06/30 05:34:36;;;;;;;8.45;4.60;;;691.40;1689.60;;;;;;5066187;28;20036;-82
2022/06/30 05:37:03;;;;;;;7.97;4.28;;;691.70;1664.00;;;;;;5082957;28;20031;-81
2022/06/30 05:39:29;;;;;;;6.35;4.05;;;691.70;1612.80;;;;;;5068784;28;20057;-86
2022/06/30 05:41:55;;;;;;;17.65;4.90;;;691.80;1587.20;;;;;;5074072;28;20021;-85
2022/06/30 05:44:20;;;;;;;7.72;4.05;;;692.00;1587.20;;;;;;5074086;28;20055;-85
2022/06/30 05:46:46;;;;;;;8.43;4.20;;;692.10;1587.20;;;;;;5090832;28;20016;-85
2022/06/30 05:49:12;;;;;;;5.53;3.67;;;716.80;1587.20;;;;;;5088971;28;20045;-83
2022/06/30 05:51:38;;;;;;;7.50;3.55;;;716.90;1587.20;;;;;;5072713;28;20040;-79
2022/06/30 05:54:04;;;;;;;6.05;3.85;;;717.10;1587.20;;;;;;5096790;28;20381;-80
2022/06/30 05:56:29;;;;;;;37.78;5.85;;;717.10;1587.20;;;;;;5080508;28;20048;-80
2022/06/30 05:58:55;;;;;;;6.38;3.97;;;717.20;1536.00;;;;;;5077852;28;20028;-78
2022/06/30 06:01:21;;;;;;;9.68;4.13;;;717.30;1536.00;;;;;;5096016;28;20450;-78
2022/06/30 06:03:46;;;;;;;8.98;3.65;;;717.50;1510.40;;;;;;5077894;28;20503;-84
2022/06/30 06:06:12;;;;;;;7.28;3.50;;;717.50;1510.40;;;;;;5077622;28;20047;-84
2022/06/30 06:08:38;;;;;;;5.38;3.60;;;717.70;1510.40;;;;;;5077771;28;20391;-78
2022/06/30 06:11:04;;;;;;;9.38;4.10;;;742.40;1510.40;;;;;;5077203;28;20020;-78
2022/06/30 06:13:30;;;;;;;10.10;3.42;;;742.40;1536.00;;;;;;5095295;28;20077;-79
2022/06/30 06:15:55;;;;;;;8.02;3.40;;;742.50;1510.40;;;;;;5077132;28;20508;-79
2022/06/30 06:18:21;;;;;;;8.23;4.25;;;742.50;1510.40;;;;;;5095265;28;20042;-77
2022/06/30 06:20:47;;;;;;;12.40;4.05;;;742.60;1510.40;;;;;;5077092;28;20023;-78
2022/06/30 06:23:13;;;;;;;12.13;4.72;;;742.80;1510.40;;;;;;5095390;28;20078;-78
2022/06/30 06:25:39;;;;;;;10.10;3.30;;;742.80;1510.40;;;;;;5077532;28;20481;-77
2022/06/30 06:30:49;;;;;;;6.63;4.07;;;742.90;1510.40;;;;;;5095558;28;20039;-75
2022/06/30 06:33:14;;;;;;;10.18;4.13;;;742.90;1459.20;;;;;;5089996;28;20021;-74
2022/06/30 06:35:40;;;;;;;8.65;3.38;;;743.00;1484.80;;;;;;5093288;28;20032;-78
2022/06/30 06:38:06;;;;;;;12.40;4.30;;;743.00;1484.80;;;;;;5077480;28;20086;-75
2022/06/30 06:40:32;;;;;;;8.05;4.22;;;743.00;1484.80;;;;;;5091690;28;20434;-77
2022/06/30 06:42:58;;;;;;;267.15;26.85;;;743.00;1459.20;;;;;;5094718;28;20043;-77
2022/06/30 06:45:24;;;;;;;7.93;3.55;;;743.00;1536.00;;;;;;5094586;28;20047;-75
2022/06/30 06:47:50;;;;;;;6.07;3.90;;;743.10;1484.80;;;;;;5076818;28;20024;-75
2022/06/30 06:50:15;;;;;;;5.90;3.63;;;743.20;1459.20;;;;;;5094563;28;20024;-74
2022/06/30 06:52:41;;;;;;;6.40;3.58;;;743.30;1459.20;;;;;;5058621;28;20024;-74
2022/06/30 06:55:07;;;;;;;8.60;3.53;;;743.30;1459.20;;;;;;5083928;28;20097;-76
2022/06/30 06:57:38;;;;;;;13.02;4.05;;;768.00;1484.80;;;;;;5076616;28;20036;-74
2022/06/30 07:00:06;;;;;;;8.32;3.83;;;768.10;1484.80;;;;;;5094761;28;20477;-78
2022/06/30 07:02:31;;;;;;;10.82;4.10;;;768.20;1484.80;;;;;;5094360;28;20492;-76
2022/06/30 07:04:57;;;;;;;7.18;4.28;;;768.30;1484.80;;;;;;5094477;28;20028;-76
2022/06/30 07:07:23;;;;;;;5.80;3.83;;;768.30;1459.20;;;;;;5094247;28;20017;-77
2022/06/30 07:09:49;;;;;;;8.15;3.60;;;768.40;1484.80;;;;;;5075972;28;20020;-79
2022/06/30 07:12:14;;;;;;;10.18;3.78;;;768.40;1459.20;;;;;;5075917;28;20060;-79
2022/06/30 07:14:40;;;;;;;9.90;3.90;;;768.50;1459.20;;;;;;5076234;28;20050;-80
2022/06/30 07:17:06;;;;;;;8.82;4.05;;;768.50;1484.80;;;;;;5075787;28;20032;-77
2022/06/30 07:19:32;;;;;;;10.13;5.53;;;768.70;1484.80;;;;;;5094022;28;20135;-78
2022/06/30 07:21:57;;;;;;;7.97;4.45;;;768.90;1484.80;;;;;;5075844;28;20078;-79
2022/06/30 07:24:23;;;;;;;7.00;3.50;;;793.60;1510.40;;;;;;5075516;28;20123;-78
2022/06/30 07:26:49;;;;;;;9.90;4.28;;;793.60;1484.80;;;;;;5093904;28;20485;-79
2022/06/30 07:29:16;;;;;;;9.55;4.80;;;793.80;1510.40;;;;;;5094025;28;20050;-77
2022/06/30 07:31:42;;;;;;;7.38;4.13;;;793.90;1484.80;;;;;;5093811;28;20113;-79
2022/06/30 07:34:08;;;;;;;8.80;4.40;;;793.90;1459.20;;;;;;5075731;28;20024;-79
2022/06/30 07:36:35;;;;;;;5.78;4.13;;;794.00;1484.80;;;;;;5075605;28;20528;-80
2022/06/30 07:39:01;;;;;;;7.95;4.25;;;794.00;1484.80;;;;;;5093501;28;20028;-75
2022/06/30 07:41:28;;;;;;;7.90;4.50;;;794.00;1484.80;;;;;;5075706;28;20102;-79
2022/06/30 07:43:54;;;;;;;9.25;4.72;;;794.00;1484.80;;;;;;5074935;28;20052;-78
2022/06/30 07:46:20;;;;;;;5.40;4.10;;;794.20;1484.80;;;;;;5093690;28;20024;-78
2022/06/30 07:48:47;;;;;;;7.25;4.47;;;794.30;1484.80;;;;;;5093192;28;20543;-78
2022/06/30 07:51:15;;;;;;;9.45;4.90;;;819.30;1484.80;;;;;;5074438;28;20474;-77
2022/06/30 07:53:41;;;;;;;7.65;4.38;;;794.50;1484.80;;;;;;5075308;28;20053;-78
2022/06/30 07:56:07;;;;;;;13.18;4.40;;;794.50;1459.20;;;;;;5093265;28;20016;-78
2022/06/30 07:58:33;;;;;;;10.85;4.22;;;794.50;1484.80;;;;;;5093324;28;20382;-78
2022/06/30 08:01:00;;;;;;;9.73;4.25;;;819.20;1484.80;;;;;;5093205;28;20020;-78
2022/06/30 08:03:26;;;;;;;6.68;4.28;;;819.40;1484.80;;;;;;5075250;28;20491;-79
2022/06/30 08:05:52;;;;;;;10.45;4.55;;;819.30;1433.60;;;;;;5074833;28;20028;-79
2022/06/30 08:08:17;;;;;;;9.27;4.47;;;819.40;1459.20;;;;;;5093226;28;20489;-79
2022/06/30 08:10:43;;;;;;;6.97;4.28;;;819.50;1459.20;;;;;;5075000;28;20347;-78
2022/06/30 08:13:09;;;;;;;8.60;4.38;;;819.60;1459.20;;;;;;5074730;28;20091;-79
2022/06/30 08:15:36;;;;;;;7.45;4.38;;;819.80;1459.20;;;;;;5075065;28;20465;-79
2022/06/30 08:18:07;;;;;;;8.20;4.32;;;819.60;1484.80;;;;;;5074616;28;20032;-79
2022/06/30 08:20:34;;;;;;;6.50;4.25;;;819.60;1484.80;;;;;;5083762;28;20138;-79
2022/06/30 08:22:59;;;;;;;11.75;6.25;;;819.60;1459.20;;;;;;5053831;28;20017;-76
2022/06/30 08:25:26;;;;;;;8.98;5.85;;;819.70;1484.80;;;;;;5092982;28;20023;-76
2022/06/30 08:27:52;;;;;;;8.48;4.78;;;819.70;1484.80;;;;;;5092648;28;20132;-75
2022/06/30 08:30:18;;;;;;;12.02;4.90;;;819.90;1484.80;;;;;;5093045;28;20483;-79
2022/06/30 08:32:44;;;;;;;10.60;4.47;;;819.90;1484.80;;;;;;5092875;28;20034;-75
2022/06/30 08:35:10;;;;;;;14.90;5.97;;;819.90;1484.80;;;;;;5092799;28;20373;-74
2022/06/30 08:37:36;;;;;;;7.70;4.53;;;820.00;1484.80;;;;;;5092563;28;20020;-76
2022/06/30 08:42:47;;;;;;;17.08;5.07;;;820.10;1510.40;;;;;;5092484;28;20031;-75
2022/06/30 08:45:13;;;;;;;10.23;4.80;;;844.90;1536.00;;;;;;5074436;28;20044;-78
2022/06/30 08:47:43;;;;;;;11.00;5.25;;;844.90;1536.00;;;;;;5071969;28;20024;-74
2022/06/30 08:50:10;;;;;;;9.50;4.90;;;844.80;1536.00;;;;;;5082866;28;20044;-75
2022/06/30 08:52:45;;;;;;;8.27;4.78;;;844.90;1536.00;;;;;;5075018;28;20522;-75
2022/06/30 08:55:16;;;;;;;12.15;5.07;;;845.00;1536.00;;;;;;5054541;28;20029;-82
2022/06/30 08:57:47;;;;;;;8.88;4.97;;;845.00;1536.00;;;;;;5071882;28;20031;-75
2022/06/30 09:00:16;;;;;;;12.43;5.53;;;845.10;1510.40;;;;;;5054246;28;20037;-78
2022/06/30 09:02:43;;;;;;;8.27;4.50;;;845.10;1536.00;;;;;;5071694;28;20028;-77
2022/06/30 09:05:10;;;;;;;9.57;5.03;;;845.20;1536.00;;;;;;5071909;28;20108;-75
2022/06/30 09:07:36;;;;;;;10.10;4.70;;;845.30;1510.40;;;;;;5072083;28;20470;-77
2022/06/30 09:10:03;;;;;;;30.05;7.28;;;845.50;1510.40;;;;;;5072011;28;20031;-82
2022/06/30 09:12:29;;;;;;;12.90;6.25;;;845.60;1510.40;;;;;;5072075;28;20024;-81
2022/06/30 09:14:55;;;;;;;13.75;5.90;;;845.60;1484.80;;;;;;5071664;28;20029;-77
2022/06/30 09:17:26;;;;;;;10.43;5.07;;;845.70;1510.40;;;;;;5072057;28;20074;-84
2022/06/30 09:19:53;;;;;;;8.40;5.38;;;845.60;1484.80;;;;;;5071605;28;20437;-78
2022/06/30 09:22:22;;;;;;;11.57;6.10;;;845.70;1510.40;;;;;;5071954;28;20068;-76
2022/06/30 09:24:55;;;;;;;12.27;5.53;;;870.40;1484.80;;;;;;5071627;28;20035;-83
2022/06/30 09:27:21;;;;;;;13.10;5.78;;;870.50;1484.80;;;;;;5053861;28;20021;-77
2022/06/30 09:29:51;;;;;;;10.43;5.00;;;870.60;1459.20;;;;;;5071694;28;20056;-78
2022/06/30 09:32:17;;;;;;;17.83;6.28;;;870.50;1484.80;;;;;;5071658;28;20107;-78
2022/06/30 09:34:43;;;;;;;11.30;5.30;;;870.60;1459.20;;;;;;5071759;28;20151;-74
2022/06/30 09:37:18;;;;;;;8.52;5.35;;;870.70;1484.80;;;;;;5053659;28;20081;-73
2022/06/30 09:39:45;;;;;;;16.58;6.57;;;870.90;1484.80;;;;;;5071760;28;20100;-74
2022/06/30 09:42:11;;;;;;;9.10;6.30;;;870.90;1433.60;;;;;;5053581;28;20024;-74
2022/06/30 09:44:36;;;;;;;10.30;6.10;;;870.90;1433.60;;;;;;5083657;28;20048;-77
2022/06/30 09:47:02;;;;;;;12.82;6.50;;;870.90;1433.60;;;;;;5091694;28;20082;-73
2022/06/30 09:49:32;;;;;;;10.13;5.97;;;871.10;1433.60;;;;;;5091763;28;20100;-74
2022/06/30 09:52:00;;;;;;;15.35;6.45;;;871.10;1382.40;;;;;;5073556;28;20024;-74
2022/06/30 09:54:26;;;;;;;14.07;6.40;;;871.10;1382.40;;;;;;5091398;28;20485;-79
2022/06/30 09:57:07;;;;;;;12.18;6.25;;;871.10;1382.40;;;;;;5091795;28;20115;-75
2022/06/30 09:59:36;;;;;;;10.65;6.65;;;871.30;1382.40;;;;;;5091469;28;20039;-79
2022/06/30 10:02:07;;;;;;;8.20;5.53;;;896.00;1382.40;;;;;;5073192;28;20029;-74
2022/06/30 10:04:52;;;;;;;11.57;5.97;;;896.10;1356.80;;;;;;5091647;28;20069;-75
2022/06/30 10:07:18;;;;;;;12.20;6.22;;;896.20;1356.80;;;;;;5091479;28;20020;-74
2022/06/30 10:09:45;;;;;;;8.25;5.78;;;896.50;1356.80;;;;;;5091428;28;20024;-74
2022/06/30 10:12:11;;;;;;;9.50;6.30;;;896.60;1356.80;;;;;;5091651;28;20069;-76
2022/06/30 10:14:37;;;;;;;11.85;6.35;;;896.50;1331.20;;;;;;5091353;28;20016;-74
2022/06/30 10:17:05;;;;;;;13.07;5.57;;;896.60;1331.20;;;;;;5077186;28;20557;-74
2022/06/30 10:19:32;;;;;;;12.18;6.45;;;896.60;1305.60;;;;;;5094929;28;20550;-74
2022/06/30 10:21:58;;;;;;;10.55;6.32;;;896.60;1305.60;;;;;;5095377;28;20020;-74
2022/06/30 10:24:24;;;;;;;9.82;6.50;;;896.70;1305.60;;;;;;5095730;28;20042;-75
2022/06/30 10:29:35;;;;;;;13.63;6.03;;;896.90;1305.60;;;;;;5095240;28;20081;-74
2022/06/30 10:32:21;;;;;;;12.98;6.28;;;921.70;1331.20;;;;;;5076659;28;20032;-76
2022/06/30 10:34:57;;;;;;;11.73;6.47;;;921.90;1305.60;;;;;;5076970;28;20028;-83
2022/06/30 10:37:31;;;;;;;12.90;5.85;;;922.00;1305.60;;;;;;5095049;28;20024;-75
2022/06/30 10:40:06;;;;;;;14.15;6.95;;;921.90;1305.60;;;;;;5094673;28;20031;-83
2022/06/30 10:42:45;;;;;;;13.40;5.93;;;921.90;1305.60;;;;;;5094724;28;20020;-82
2022/06/30 10:45:26;;;;;;;9.63;6.07;;;922.00;1305.60;;;;;;5094184;28;20052;-75
2022/06/30 10:48:08;;;;;;;10.20;6.30;;;922.00;1331.20;;;;;;5076594;28;20051;-78
2022/06/30 10:50:33;;;;;;;14.13;6.88;;;922.00;1280.00;;;;;;5094603;28;20054;-75
2022/06/30 10:53:00;;;;;;;15.10;6.22;;;922.00;1305.60;;;;;;5094658;28;20023;-76
2022/06/30 10:55:26;;;;;;;12.95;6.90;;;922.10;1305.60;;;;;;5094633;28;20017;-74
2022/06/30 10:58:06;;;;;;;10.57;6.57;;;922.10;1305.60;;;;;;5094697;28;20020;-83
2022/06/30 11:00:42;;;;;;;14.05;6.75;;;922.20;1305.60;;;;;;5094418;28;20062;-78
2022/06/30 11:03:08;;;;;;;14.15;5.90;;;922.10;1280.00;;;;;;5094376;28;20027;-81
2022/06/30 11:05:48;;;;;;;13.63;6.50;;;922.00;1280.00;;;;;;5094706;28;20386;-77
2022/06/30 11:11:24;;;;;;;16.23;6.53;;;922.50;1280.00;;;;;;5094508;28;20043;-79
2022/06/30 11:14:02;;;;;;;16.23;6.70;;;922.40;1254.40;;;;;;5076322;28;20077;-81
2022/06/30 11:16:29;;;;;;;14.65;7.57;;;922.50;1254.40;;;;;;5094286;28;20031;-78
2022/06/30 11:18:55;;;;;;;10.85;6.97;;;922.40;1254.40;;;;;;5094368;28;20055;-81
2022/06/30 11:21:21;;;;;;;16.40;6.80;;;922.50;1280.00;;;;;;5093802;28;20462;-82
2022/06/30 11:23:48;;;;;;;16.23;6.57;;;922.50;1228.80;;;;;;5094354;28;20024;-78
2022/06/30 11:29:03;;;;;;;11.18;6.25;;;947.20;1228.80;;;;;;5082634;28;20120;-78
2022/06/30 11:31:35;;;;;;;15.15;6.38;;;947.30;1254.40;;;;;;5094052;28;20450;-82
2022/06/30 11:34:05;;;;;;;13.00;7.00;;;947.40;1254.40;;;;;;5093846;28;20028;-77
2022/06/30 11:36:36;;;;;;;12.95;7.10;;;947.20;1254.40;;;;;;5093791;28;20031;-81
2022/06/30 11:39:17;;;;;;;18.83;6.43;;;947.40;1228.80;;;;;;5094128;28;20035;-78
2022/06/30 11:41:57;;;;;;;18.70;6.30;;;947.30;1254.40;;;;;;5093793;28;20024;-78
2022/06/30 11:44:30;;;;;;;18.35;6.88;;;947.40;1254.40;;;;;;5075536;28;20051;-80
2022/06/30 11:47:03;;;;;;;13.57;6.90;;;947.60;1254.40;;;;;;5093969;28;20038;-83
2022/06/30 11:49:52;;;;;;;15.02;7.53;;;947.60;1203.20;;;;;;5076030;28;20020;-78
2022/06/30 11:52:29;;;;;;;25.92;7.10;;;947.90;1228.80;;;;;;5099153;28;20061;-77
2022/06/30 11:55:02;;;;;;;23.17;7.03;;;947.90;1228.80;;;;;;5107053;28;20012;-77
2022/06/30 11:57:31;;;;;;;16.60;7.13;;;947.90;1228.80;;;;;;5101071;28;20048;-80
2022/06/30 12:00:02;;;;;;;16.40;7.07;;;947.90;1203.20;;;;;;5093180;28;20034;-78
2022/06/30 12:02:30;;;;;;;18.30;6.28;;;947.80;1228.80;;;;;;5075272;28;20031;-81
2022/06/30 12:04:58;;;;;;;15.82;6.28;;;947.90;1203.20;;;;;;5075240;28;20028;-78
2022/06/30 12:07:25;;;;;;;20.40;6.60;;;947.80;1228.80;;;;;;5093431;28;20016;-79
2022/06/30 12:09:52;;;;;;;19.67;7.10;;;947.60;1228.80;;;;;;5093003;28;20042;-76
2022/06/30 12:12:28;;;;;;;14.82;6.40;;;947.80;1177.60;;;;;;5093323;28;20098;-77
2022/06/30 12:15:02;;;;;;;13.48;7.00;;;948.00;1152.00;;;;;;5092704;28;20023;-77
2022/06/30 12:17:52;;;;;;;19.33;6.88;;;948.10;1228.80;;;;;;5092966;28;20024;-77
2022/06/30 12:20:20;;;;;;;16.55;7.38;;;948.10;1203.20;;;;;;5093113;28;20454;-77
2022/06/30 12:22:48;;;;;;;21.13;8.05;;;948.00;1203.20;;;;;;5092978;28;20017;-78
2022/06/30 12:25:15;;;;;;;15.75;6.45;;;948.00;1203.20;;;;;;5074673;28;20030;-77
2022/06/30 12:27:52;;;;;;;18.00;6.95;;;947.90;1228.80;;;;;;5093020;28;20055;-79
2022/06/30 12:30:24;;;;;;;14.07;6.30;;;948.00;1203.20;;;;;;5092588;28;20012;-78
2022/06/30 12:33:00;;;;;;;17.60;6.38;;;948.10;1203.20;;;;;;5092828;28;20039;-79
2022/06/30 12:35:35;;;;;;;15.63;6.68;;;972.80;1203.20;;;;;;5092924;28;20082;-79
2022/06/30 12:38:18;;;;;;;11.33;6.17;;;972.80;1203.20;;;;;;5092260;28;20024;-77